createdAt,value
2019-01-17T00:02:11.287Z,5.63
2019-01-17T00:07:25.940Z,5.80
2019-01-17T00:12:53.544Z,6.30
2019-01-17T00:18:16.028Z,5.50
2019-01-17T00:23:34.336Z,6.07
2019-01-17T00:28:51.510Z,5.67
2019-01-17T00:34:13.924Z,6.10
2019-01-17T00:39:38.482Z,5.70
2019-01-17T00:45:08.349Z,5.80
2019-01-17T00:50:26.673Z,5.27
2019-01-17T00:55:41.644Z,5.07
2019-01-17T01:01:09.041Z,5.50
2019-01-17T01:06:35.592Z,5.60
2019-01-17T01:11:51.907Z,5.90
2019-01-17T01:17:33.755Z,5.20
2019-01-17T01:23:06.905Z,5.53
2019-01-17T01:28:29.841Z,5.37
2019-01-17T01:34:06.016Z,5.27
2019-01-17T01:39:20.815Z,5.93
2019-01-17T01:44:43.293Z,5.17
2019-01-17T01:50:22.427Z,5.00
2019-01-17T01:55:27.099Z,5.30
2019-01-17T02:00:31.779Z,5.70
2019-01-17T02:05:36.510Z,4.90
2019-01-17T02:10:41.347Z,5.00
2019-01-17T02:15:46.087Z,4.33
2019-01-17T02:20:50.795Z,4.53
2019-01-17T02:25:55.505Z,4.37
2019-01-17T02:31:00.191Z,4.47
2019-01-17T02:36:04.979Z,4.67
2019-01-17T02:41:09.645Z,4.63
2019-01-17T02:46:14.522Z,4.75
2019-01-17T02:51:19.344Z,4.78
2019-01-17T02:56:24.094Z,4.33
2019-01-17T03:01:28.744Z,4.70
2019-01-17T03:06:33.505Z,4.50
2019-01-17T03:11:38.603Z,4.80
2019-01-17T03:16:43.316Z,4.30
2019-01-17T03:21:47.970Z,5.50
2019-01-17T03:26:52.942Z,4.63
2019-01-17T03:31:57.618Z,5.43
2019-01-17T03:37:02.459Z,5.40
2019-01-17T03:42:07.121Z,5.23
2019-01-17T03:47:11.790Z,4.70
2019-01-17T03:52:16.456Z,5.50
2019-01-17T03:57:21.330Z,5.10
2019-01-17T04:02:26.048Z,5.30
2019-01-17T04:07:30.860Z,5.50
2019-01-17T04:12:35.578Z,5.27
2019-01-17T04:17:40.439Z,5.50
2019-01-17T04:22:45.185Z,5.50
2019-01-17T04:27:50.839Z,5.47
2019-01-17T04:32:55.568Z,5.47
2019-01-17T04:38:00.247Z,5.57
2019-01-17T04:43:05.074Z,5.33
2019-01-17T04:48:09.735Z,5.20
2019-01-17T04:53:14.403Z,5.10
2019-01-17T04:58:19.184Z,5.63
2019-01-17T05:03:23.865Z,5.30
2019-01-17T05:08:28.509Z,5.17
2019-01-17T05:13:33.210Z,5.30
2019-01-17T05:18:37.955Z,5.37
2019-01-17T05:23:42.666Z,5.77
2019-01-17T05:28:47.424Z,4.70
2019-01-17T05:33:52.088Z,4.83
2019-01-17T05:38:56.754Z,4.63
2019-01-17T05:44:01.472Z,4.63
2019-01-17T05:49:06.630Z,4.73
2019-01-17T05:54:11.340Z,4.67
2019-01-17T05:59:21.789Z,4.73
2019-01-17T06:04:26.544Z,4.63
2019-01-17T06:09:31.292Z,4.30
2019-01-17T06:14:36.044Z,4.13
2019-01-17T06:19:41.222Z,4.50
2019-01-17T06:24:45.940Z,4.03
2019-01-17T06:29:51.732Z,4.23
2019-01-17T06:34:56.420Z,3.77
2019-01-17T06:40:01.294Z,3.80
2019-01-17T06:45:06.158Z,3.63
2019-01-17T06:50:11.210Z,3.30
2019-01-17T06:55:15.960Z,3.50
2019-01-17T07:00:21.008Z,3.63
2019-01-17T07:05:26.638Z,4.10
2019-01-17T07:10:31.419Z,3.60
2019-01-17T07:15:36.102Z,3.47
2019-01-17T07:20:40.765Z,3.70
2019-01-17T07:25:45.458Z,3.73
2019-01-17T07:30:50.278Z,3.27
2019-01-17T07:35:54.965Z,3.70
2019-01-17T07:40:59.740Z,3.43
2019-01-17T07:46:04.588Z,3.40
2019-01-17T07:51:10.295Z,3.33
2019-01-17T07:56:15.928Z,3.60
2019-01-17T08:01:20.740Z,3.23
2019-01-17T08:06:25.573Z,2.92
2019-01-17T08:11:30.521Z,3.30
2019-01-17T08:16:35.377Z,3.20
2019-01-17T08:21:40.096Z,2.93
2019-01-17T08:27:01.351Z,2.80
2019-01-17T08:32:03.331Z,3.17
2019-01-17T08:37:08.558Z,3.00
2019-01-17T08:42:13.226Z,2.70
2019-01-17T08:47:17.917Z,2.77
2019-01-17T08:52:22.620Z,2.63
2019-01-17T08:57:27.451Z,3.20
2019-01-17T09:02:32.268Z,2.90
2019-01-17T09:07:37.037Z,2.93
2019-01-17T09:12:41.788Z,2.97
2019-01-17T09:17:46.966Z,2.50
2019-01-17T09:22:51.799Z,2.60
2019-01-17T09:27:56.495Z,2.60
2019-01-17T09:33:01.295Z,2.93
2019-01-17T09:38:06.125Z,2.40
2019-01-17T09:43:10.777Z,2.80
2019-01-17T09:48:15.445Z,2.30
2019-01-17T09:53:20.278Z,2.10
2019-01-17T09:58:25.015Z,2.40
2019-01-17T10:03:29.681Z,2.10
2019-01-17T10:08:34.434Z,2.07
2019-01-17T10:13:39.118Z,2.63
2019-01-17T10:19:14.901Z,1.90
2019-01-17T10:24:27.184Z,1.80
2019-01-17T10:29:42.013Z,2.63
2019-01-17T10:35:07.716Z,2.20
2019-01-17T10:40:44.496Z,2.00
2019-01-17T10:46:24.411Z,1.90
2019-01-17T10:52:15.363Z,1.93
2019-01-17T10:57:39.345Z,1.70
2019-01-17T11:03:28.291Z,1.67
2019-01-17T11:09:01.290Z,1.90
2019-01-17T11:14:17.918Z,1.77
2019-01-17T11:20:06.611Z,1.50
2019-01-17T11:25:39.386Z,2.07
2019-01-17T11:31:10.547Z,1.70
2019-01-17T11:37:08.786Z,1.60
2019-01-17T11:42:44.292Z,3.07
2019-01-17T11:48:22.755Z,1.80
2019-01-17T11:53:59.755Z,1.87
2019-01-17T11:59:24.031Z,1.93
2019-01-17T12:04:41.192Z,1.70
2019-01-17T12:09:45.942Z,2.00
2019-01-17T12:14:51.122Z,2.00
2019-01-17T12:19:55.867Z,1.60
2019-01-17T12:25:00.545Z,2.03
2019-01-17T12:30:08.907Z,1.90
2019-01-17T12:35:13.672Z,1.53
2019-01-17T12:40:18.497Z,1.60
2019-01-17T12:45:23.200Z,1.50
2019-01-17T12:50:28.107Z,1.70
2019-01-17T12:55:32.852Z,1.50
2019-01-17T13:00:38.446Z,1.63
2019-01-17T13:05:43.271Z,1.70
2019-01-17T13:10:48.160Z,1.47
2019-01-17T13:15:53.731Z,1.30
2019-01-17T13:20:58.394Z,1.40
2019-01-17T13:26:03.525Z,1.10
2019-01-17T13:31:08.208Z,1.53
2019-01-17T13:36:13.242Z,1.30
2019-01-17T13:41:18.213Z,1.70
2019-01-17T13:46:22.923Z,1.30
2019-01-17T13:58:02.007Z,1.57
2019-01-17T14:03:06.698Z,1.90
2019-01-17T14:08:11.398Z,1.87
2019-01-17T14:13:16.110Z,1.70
2019-01-17T14:18:20.726Z,1.63
2019-01-17T14:23:25.440Z,1.70
2019-01-17T14:28:30.307Z,1.80
2019-01-17T14:33:35.065Z,1.70
2019-01-17T14:38:40.094Z,1.97
2019-01-17T14:43:44.847Z,1.90
2019-01-17T14:48:49.531Z,1.87
2019-01-17T14:53:54.487Z,2.10
2019-01-17T14:58:59.186Z,1.90
2019-01-17T15:04:05.336Z,1.77
2019-01-17T15:09:10.012Z,1.50
2019-01-17T15:14:14.742Z,1.70
2019-01-17T15:19:20.374Z,1.90
2019-01-17T15:24:25.148Z,1.70
2019-01-17T15:29:29.865Z,1.80
2019-01-17T15:34:34.572Z,1.80
2019-01-17T15:39:39.462Z,1.90
2019-01-17T15:44:44.211Z,2.00
2019-01-17T15:49:48.895Z,2.17
2019-01-17T15:54:53.701Z,2.40
2019-01-17T15:59:58.399Z,2.50
2019-01-17T16:05:03.229Z,2.23
2019-01-17T16:10:09.660Z,2.10
2019-01-17T16:15:16.708Z,2.30
2019-01-17T16:20:21.392Z,2.43
2019-01-17T16:25:26.176Z,2.00
2019-01-17T16:30:32.446Z,2.20
2019-01-17T16:35:37.231Z,2.40
2019-01-17T16:40:42.881Z,2.10
2019-01-17T16:45:47.570Z,2.37
2019-01-17T16:50:52.547Z,2.20
2019-01-17T16:55:58.200Z,2.60
2019-01-17T17:01:02.960Z,2.70
2019-01-17T17:06:07.773Z,3.17
2019-01-17T17:11:12.515Z,3.07
2019-01-17T17:16:17.196Z,2.30
2019-01-17T17:21:21.936Z,2.23
2019-01-17T17:26:26.939Z,1.50
2019-01-17T17:31:31.678Z,1.50
2019-01-17T17:36:37.598Z,1.63
2019-01-17T17:41:44.201Z,1.60
2019-01-17T17:46:49.872Z,1.70
2019-01-17T17:51:56.053Z,1.73
2019-01-17T17:57:02.578Z,1.70
2019-01-17T18:02:13.112Z,1.80
2019-01-17T18:07:17.870Z,1.97
2019-01-17T18:12:22.591Z,1.80
2019-01-17T18:17:27.785Z,1.57
2019-01-17T18:22:32.487Z,1.77
2019-01-17T18:27:37.256Z,2.00
2019-01-17T18:32:41.954Z,1.60
2019-01-17T18:37:47.765Z,2.10
2019-01-17T18:42:52.581Z,2.10
2019-01-17T18:47:57.350Z,2.13
2019-01-17T18:53:02.195Z,2.10
2019-01-17T18:58:06.867Z,2.63
2019-01-17T19:03:11.533Z,3.13
2019-01-17T19:08:16.287Z,2.93
2019-01-17T19:13:21.051Z,3.20
2019-01-17T19:18:25.827Z,3.50
2019-01-17T19:23:30.668Z,2.87
2019-01-17T19:28:35.355Z,3.53
2019-01-17T19:33:40.125Z,3.33
2019-01-17T19:38:44.871Z,3.70
2019-01-17T19:43:49.586Z,4.13
2019-01-17T19:48:54.425Z,4.27
2019-01-17T19:53:59.142Z,3.50
2019-01-17T19:59:04.834Z,3.83
2019-01-17T20:04:09.648Z,3.77
2019-01-17T20:09:16.248Z,3.70
2019-01-17T20:14:20.946Z,3.43
2019-01-17T20:19:25.708Z,3.83
2019-01-17T20:24:30.690Z,3.23
2019-01-17T20:29:35.373Z,3.13
2019-01-17T20:34:40.053Z,3.63
2019-01-17T20:39:44.714Z,3.40
2019-01-17T20:44:49.422Z,3.70
2019-01-17T20:49:54.180Z,3.10
2019-01-17T20:54:58.871Z,2.90
2019-01-17T21:00:04.585Z,2.70
2019-01-17T21:05:09.511Z,3.00
2019-01-17T21:10:14.881Z,2.67
2019-01-17T21:15:19.686Z,2.90
2019-01-17T21:20:24.366Z,2.90
2019-01-17T21:25:29.087Z,2.87
2019-01-17T21:30:34.294Z,3.10
2019-01-17T21:35:39.231Z,2.83
2019-01-17T21:40:43.909Z,3.13
2019-01-17T21:45:48.655Z,3.40
2019-01-17T21:50:53.454Z,3.77
2019-01-17T21:55:58.219Z,3.37
2019-01-17T22:01:03.105Z,2.87
2019-01-17T22:06:08.803Z,3.40
2019-01-17T22:11:13.472Z,2.73
2019-01-17T22:16:18.168Z,2.85
2019-01-17T22:21:22.840Z,2.87
2019-01-17T22:26:27.587Z,3.00
2019-01-17T22:31:32.313Z,2.67
2019-01-17T22:36:37.048Z,3.00
2019-01-17T22:41:41.759Z,2.80
2019-01-17T22:46:46.519Z,2.80
2019-01-17T22:51:51.253Z,2.93
2019-01-17T22:56:55.940Z,2.67
2019-01-17T23:02:00.690Z,2.97
2019-01-17T23:07:05.442Z,2.80
2019-01-17T23:12:10.118Z,2.37
2019-01-17T23:17:14.792Z,2.77
2019-01-17T23:22:19.748Z,2.20
2019-01-17T23:27:24.500Z,1.80
2019-01-17T23:32:29.682Z,2.33
2019-01-17T23:37:34.493Z,1.77
2019-01-17T23:42:39.248Z,2.20
2019-01-17T23:47:44.158Z,1.93
2019-01-17T23:52:48.824Z,2.10
2019-01-17T23:57:53.534Z,2.27
